Strona główna
METAR-TAF:

METAR-TAF

Lotnisko :

Kingston, Ontario, Kanada

Szerokość geograficzna: 44-13N, Długość geograficzna: 076-36W, wysokość: 93 m

Aktualna obserwacja pogody

Raport powstał 49 minut temu, godzina 10:00 UTC
Wiatr 4 kt od północ
Temperatura 15°C
Wilgotność 94%
Ciśnienie 1015 hPa
Widzialność: 24.1 km
Rozproszone chmury na wysokości 9000 ft
Przerywane chmury na wysokości 12000 ft
Przerywane chmury na wysokości 25000 ft

METAR: CYGK 181000Z 36004KT 15SM SCT090 BKN120 BKN250 15/14 A2996 RMK AC3AC4CI1 CI TR SLP146 DENSITY ALT 400FT

czas: 06:49 (10:49 UTC)

Prognoza

Raport powstał 15 godziny i 11 minut temu, godzina 19:38 UTC
Prognoza ważna od 17 godzina 20 UTC do 18 godzina 03 UTC
Wiatr 8 kt od południowo-południowy zachód
Widzialność: 10 km
Mało chmury na wysokości 4000 ft
Rozproszone chmury na wysokości 14000 ft
Stopniowe zmiany
od 17 godzina 21 UTC do 17 godzina 23 UTC
Wiatr 3 kt z kierunków zmiennych

TAF: CYGK 171938Z 1720/1803 20008KT P6SM FEW040 SCT140 BECMG 1721/1723 VRB03KT RMK NXT FCST WILL BE ISSUED AT 181145Z

Obserwacja i prognoza pogody dla ponad 4000 lotnisk (raport METAR i TAF).

Dostępne stacje oznaczono żółtymi i czerwonymi punktami na mapie.

Najedź kursorem aby zobaczyć nazwę stacji.

Kliknij aby zobaczyć obserwacje i prognozy pogody.

Aby zmienić mapę: kliknij na zielony przycisk z czarnym krzyżykiem, aby powiększyć; na zielony przycisk z myślnikiem, aby pomniejszyć; na zielone strzałki, aby przejść do map sąsiednich.


METAR-TAF: